Bei Facebook empfehlenBei Twitter postenGoogle plusPinterest

Das Wetter im Erzgebirge am 25.08.2015

Wetter und Klima am 25.08.2015 Holzhau im Erzgebirge (630m ü.NN)
Letzte gemessene Temperatur und Uhrzeit der Messung23:45:00 Uhr7.30 °C
Temperatur (Maximum / Höchstwert) und Uhrzeit der Messung00:00:00 Uhr19.10 °C
Temperatur (Minimum / Tiefstwert) und Uhrzeit der Messung23:45:007.30 °C
Errechneter Absolutwert der Temperaturschwankungen zwischen Tmin und Tmax des Tages11.80 K
Errechnete Tagesmitteltemperatur13.95521 °C
Gesamt - Niederschlag des Tages (in flüssiger Form)7.25 Liter / m²
Luftdruck (Maximum / Höchstwert) und Zeitpunkt der Messung23:45:00 Uhr1016.70 hPa
Luftdruck (Minimum / Tiefstwert) und Zeitpunkt der Messung00:00:00 Uhr1005.90 hPa
Errechneter Absolutwert der Luftdruckschwankungen des Tages10.80 hPa
Höchste gemessene Windgeschwindigkeit und Uhrzeit der Messung13:15:00 Uhr660.96 km/h
Errechnete Windhäufigkeit in Relation zu den Messwerten des Tages15.62500 %
Niedrigste Windkühle (Windchill) und Zeitpunkt der Messung23:45:00 Uhr7.30 °C
Taupunkt (Maximum / Höchstwert) und Uhrzeit der Messung00:45:00 Uhr14.80 °C
Taupunkt (Minimum / Tiefstwert) und Uhrzeit der Messung23:45:005.40 °C
Anzahl der automatisch eingelesenen Messwerte 96

Detaillierte Wetter- und Klima- Messwerte für den 25.08.2015 in Holzhau im Erzgebirge (630m ü.NN)
ZeitTemperaturLuftdruckRel. LuftfeuchteWindWindrichtungWindchillTaupunktNiederschlag l/m²
23:45:007.30 °C1016.70 hPa88.00 %5.40 °C7.25
23:30:007.30 °C1016.70 hPa88.00 %5.40 °C7.25
23:15:007.50 °C1016.70 hPa88.00 %5.60 °C7.25
23:00:007.80 °C1016.60 hPa87.00 %5.80 °C7.25
22:45:008.10 °C1016.40 hPa87.00 %6.10 °C7.25
22:30:008.30 °C1016.40 hPa86.00 %6.10 °C7.25
22:15:008.70 °C1016.60 hPa86.00 %6.50 °C7.25
22:00:009.20 °C1016.50 hPa85.00 %6.80 °C7.25
21:45:009.50 °C1016.40 hPa84.00 %6.90 °C7.25
21:30:009.60 °C1016.20 hPa84.00 %7.00 °C7.25
21:15:0010.00 °C1016.40 hPa82.00 %7.10 °C7.25
21:00:0010.50 °C1016.30 hPa82.00 %7.60 °C7.25
20:45:0011.10 °C1016.30 hPa80.00 %7.80 °C7.25
20:30:0011.60 °C1016.00 hPa80.00 %8.30 °C7.25
20:15:0011.90 °C1016.00 hPa78.00 %8.20 °C7.25
20:00:0012.50 °C1016.00 hPa77.00 %8.60 °C7.25
19:45:0013.10 °C1015.80 hPa75.00 %8.80 °C7.25
19:30:0013.60 °C1015.90 hPa75.00 %9.30 °C7.25
19:15:0014.10 °C1015.80 hPa74.00 %33.84 km/hSSW13.60 °C9.50 °C7.25
19:00:0014.60 °C1015.80 hPa72.00 %19.44 km/hSW14.90 °C9.60 °C7.25
18:45:0015.30 °C1015.70 hPa72.00 %10.30 °C7.25
18:30:0015.70 °C1015.70 hPa72.00 %32.40 km/hWSW15.60 °C10.70 °C7.25
18:15:0015.90 °C1015.70 hPa72.00 %10.90 °C7.25
18:00:0016.20 °C1015.70 hPa71.00 %47.88 km/hSW15.70 °C10.90 °C7.25
17:45:0016.70 °C1015.80 hPa71.00 %30.96 km/hWSW16.80 °C11.40 °C7.25
17:30:0016.30 °C1015.80 hPa71.00 %11.00 °C7.25
17:15:0015.90 °C1015.60 hPa71.00 %27.36 km/hSW16.00 °C10.70 °C7.25
17:00:0015.90 °C1015.70 hPa70.00 %7.92 km/hSW15.90 °C10.40 °C7.25
16:45:0016.30 °C1015.60 hPa70.00 %20.88 km/hWSW16.80 °C10.80 °C7.25
16:30:0016.30 °C1015.70 hPa70.00 %10.80 °C7.25
16:15:0016.50 °C1015.30 hPa69.00 %10.80 °C7.25
16:00:0017.00 °C1015.20 hPa69.00 %11.30 °C7.25
15:45:0016.90 °C1015.10 hPa69.00 %11.20 °C7.25
15:30:0017.10 °C1014.90 hPa71.00 %11.80 °C7.25
15:15:0016.90 °C1014.80 hPa70.00 %37.44 km/hNW16.80 °C11.40 °C7.25
15:00:0016.90 °C1015.00 hPa69.00 %11.20 °C7.25
14:45:0016.90 °C1014.80 hPa68.00 %11.00 °C7.25
14:30:0017.80 °C1014.80 hPa68.00 %11.80 °C7.25
14:15:0018.50 °C1014.30 hPa68.00 %12.96 km/hNW18.50 °C12.50 °C7.25
14:00:0017.80 °C1014.10 hPa69.00 %12.00 °C7.25
13:45:0018.10 °C1013.80 hPa67.00 %42.84 km/hSW18.10 °C11.90 °C7.25
13:30:0018.60 °C1013.70 hPa70.00 %14.40 km/hWSW18.60 °C13.00 °C7.25
13:15:0017.30 °C1013.40 hPa71.00 %660.96 km/hNO13.50 °C12.00 °C6.73
13:00:0016.90 °C1013.60 hPa72.00 %660.96 km/hNO12.90 °C11.80 °C6.73
12:45:0016.80 °C1013.50 hPa71.00 %660.96 km/hNO12.70 °C11.50 °C6.73
12:30:0016.30 °C1013.40 hPa72.00 %11.20 °C6.21
12:15:0017.10 °C1013.20 hPa73.00 %12.20 °C6.21
12:00:0016.90 °C1013.30 hPa74.00 %12.20 °C6.21
11:45:0017.10 °C1012.90 hPa76.00 %12.80 °C6.21
11:30:0016.60 °C1012.50 hPa78.00 %12.80 °C6.21
11:15:0016.10 °C1012.70 hPa81.00 %12.80 °C6.21
11:00:0016.10 °C1012.50 hPa82.00 %13.00 °C6.21
10:45:0015.80 °C1012.20 hPa84.00 %13.10 °C6.21
10:30:0015.20 °C1012.30 hPa87.00 %13.10 °C6.21
10:15:0014.30 °C1012.10 hPa89.00 %12.50 °C6.21
10:00:0013.50 °C1012.20 hPa90.00 %11.90 °C6.21
09:45:0012.40 °C1012.20 hPa90.00 %10.80 °C6.21
09:30:0012.20 °C1012.00 hPa90.00 %10.60 °C6.21
09:15:0012.20 °C1011.80 hPa90.00 %10.60 °C6.21
09:00:0012.40 °C1011.90 hPa89.00 %10.60 °C6.21
08:45:0012.80 °C1012.20 hPa90.00 %11.20 °C6.21
08:30:0012.60 °C1011.90 hPa90.00 %11.00 °C6.21
08:15:0012.60 °C1012.00 hPa90.00 %11.00 °C6.21
08:00:0012.30 °C1012.00 hPa90.00 %10.70 °C6.21
07:45:0012.40 °C1011.80 hPa90.00 %10.80 °C6.21
07:30:0012.20 °C1010.70 hPa90.00 %10.60 °C6.21
07:15:0012.40 °C1010.40 hPa90.00 %10.80 °C6.21
07:00:0012.40 °C1010.70 hPa91.00 %11.00 °C6.21
06:45:0012.30 °C1010.60 hPa91.00 %10.90 °C6.21
06:30:0012.50 °C1010.80 hPa91.00 %11.10 °C6.21
06:15:0012.60 °C1010.70 hPa91.00 %11.20 °C6.21
06:00:0012.50 °C1010.50 hPa91.00 %11.10 °C6.21
05:45:0012.70 °C1010.10 hPa91.00 %11.30 °C6.21
05:30:0012.70 °C1009.80 hPa91.00 %11.30 °C6.21
05:15:0012.90 °C1009.70 hPa91.00 %11.50 °C6.21
05:00:0012.90 °C1009.70 hPa91.00 %11.50 °C6.21
04:45:0012.90 °C1009.50 hPa91.00 %11.50 °C6.21
04:30:0012.80 °C1009.40 hPa91.00 %11.40 °C6.21
04:15:0012.40 °C1009.30 hPa91.00 %11.00 °C6.21
04:00:0012.40 °C1008.90 hPa91.00 %11.00 °C6.21
03:45:0012.50 °C1008.70 hPa90.00 %10.90 °C6.21
03:30:0012.60 °C1008.50 hPa90.00 %11.00 °C6.21
03:15:0012.80 °C1008.50 hPa90.00 %11.20 °C6.21
03:00:0012.90 °C1008.50 hPa90.00 %11.30 °C6.21
02:45:0012.90 °C1008.30 hPa89.00 %11.10 °C6.21
02:30:0013.00 °C1008.30 hPa88.00 %11.10 °C6.21
02:15:0013.10 °C1008.40 hPa88.00 %11.20 °C5.70
02:00:0013.20 °C1008.50 hPa87.00 %11.10 °C5.70
01:45:0013.60 °C1008.60 hPa86.00 %11.30 °C4.66
01:30:0014.20 °C1008.70 hPa85.00 %11.70 °C4.14
01:15:0014.90 °C1008.80 hPa83.00 %12.00 °C2.59
01:00:0016.30 °C1008.70 hPa80.00 %12.80 °C1.03
00:45:0018.50 °C1008.40 hPa79.00 %14.80 °C 
00:30:0018.90 °C1007.50 hPa76.00 %14.60 °C 
00:15:0018.90 °C1006.30 hPa75.00 %14.40 °C 
00:00:0019.10 °C1005.90 hPa75.00 %14.60 °C 

Permanenter Link zu dieser Seite: Wetter im Erzgebirge am 25.08.2015
Performance-Info: Die Erstellung der Seite / Statistik(en) / Tabelle(n) erforderte 5 Datenbankserver-Abfrage(n) und dauerte 125 Millisekunden. (Dieser Messwert ist von der Gesamt-Auslastung des Servers abhängig.)
Erzgebirge - Wetter | Erzgebirge - Wetter (Mobilgeräte) | Komplette Klimadatenbank